Time;durP1;ratioP1;P1;durP2;ratioP2;P2;SDS_P1;SDS_P2;PMS_P1;PMS_P2;Temp;Humidity;BMP_temperature;BMP_pressure;BME280_temperature;BME280_humidity;BME280_pressure;Samples;Min_cycle;Max_cycle;Signal;HPM_P1;HPM_P2
2023/05/14 00:00:38;;;;;;;34.95;20.02;;;;;;;14.16;100.00;101522.22;4941491;29;20130;-84
2023/05/14 00:03:03;;;;;;;39.30;19.63;;;;;;;14.31;100.00;101557.75;4969911;28;20042;-83
2023/05/14 00:05:29;;;;;;;33.30;19.38;;;;;;;14.23;100.00;101541.00;4947615;29;20047;-84
2023/05/14 00:07:54;;;;;;;42.80;20.27;;;;;;;14.32;100.00;101560.38;4940775;29;20035;-83
2023/05/14 00:10:20;;;;;;;35.03;20.70;;;;;;;14.29;100.00;101548.75;4952615;29;20035;-84
2023/05/14 00:12:46;;;;;;;35.65;20.55;;;;;;;14.25;100.00;101550.00;4941920;29;20046;-84
2023/05/14 00:15:12;;;;;;;50.78;20.77;;;;;;;14.20;100.00;101544.91;4973754;28;20389;-83
2023/05/14 00:17:37;;;;;;;48.28;22.25;;;;;;;14.25;100.00;101547.25;4955845;28;20051;-83
2023/05/14 00:20:06;;;;;;;38.17;19.77;;;;;;;14.21;100.00;101549.38;4973531;28;20394;-84
2023/05/14 00:22:32;;;;;;;34.83;20.33;;;;;;;14.21;100.00;101543.03;4941956;29;20043;-82
2023/05/14 00:24:57;;;;;;;39.75;20.85;;;;;;;14.14;100.00;101545.41;4973340;28;20150;-84
2023/05/14 00:27:23;;;;;;;36.30;20.15;;;;;;;14.21;100.00;101549.38;4941139;29;20119;-83
2023/05/14 00:29:51;;;;;;;36.55;20.35;;;;;;;14.24;100.00;101551.03;4943123;29;20031;-84
2023/05/14 00:32:17;;;;;;;57.40;22.13;;;;;;;14.15;100.00;101537.03;4937769;29;20048;-83
2023/05/14 00:34:42;;;;;;;33.65;20.75;;;;;;;14.15;100.00;101533.41;4946616;29;20039;-83
2023/05/14 00:37:08;;;;;;;43.53;21.00;;;;;;;14.14;100.00;101534.41;4940526;29;20035;-82
2023/05/14 00:39:33;;;;;;;42.33;21.17;;;;;;;14.11;100.00;101530.00;4958101;28;20138;-83
2023/05/14 00:41:59;;;;;;;38.70;20.95;;;;;;;14.03;100.00;101524.25;4958165;29;20035;-83
2023/05/14 00:44:24;;;;;;;41.75;21.67;;;;;;;14.11;100.00;101527.25;4943726;28;20051;-82
2023/05/14 00:46:50;;;;;;;42.97;21.83;;;;;;;14.15;100.00;101520.50;4924275;29;20036;-82
2023/05/14 00:49:16;;;;;;;37.60;21.67;;;;;;;14.05;100.00;101515.88;4938948;28;20043;-83
2023/05/14 00:51:45;;;;;;;49.70;22.10;;;;;;;14.13;100.00;101525.28;4960357;29;20042;-82
2023/05/14 00:54:15;;;;;;;47.25;22.33;;;;;;;13.92;100.00;101516.00;4959045;29;20031;-82
2023/05/14 00:56:44;;;;;;;44.35;23.92;;;;;;;13.88;100.00;101522.78;4927946;29;20035;-81
2023/05/14 00:59:09;;;;;;;38.78;22.40;;;;;;;13.82;100.00;101515.03;4967419;28;20043;-82
2023/05/14 01:01:36;;;;;;;39.55;22.95;;;;;;;13.61;100.00;101485.53;4947382;29;20044;-82
2023/05/14 01:04:02;;;;;;;40.20;23.20;;;;;;;13.65;100.00;101524.69;4943477;29;20035;-82
2023/05/14 01:07:04;;;;;;;37.03;22.83;;;;;;;13.53;100.00;101507.31;4950496;29;20037;-83
2023/05/14 01:09:59;;;;;;;41.20;23.93;;;;;;;13.44;100.00;101519.03;4920384;29;20130;-83
2023/05/14 01:12:28;;;;;;;45.42;23.65;;;;;;;13.47;100.00;101525.16;4972815;28;20112;-82
2023/05/14 01:15:04;;;;;;;41.58;23.95;;;;;;;13.30;100.00;101517.34;4958341;29;20031;-83
2023/05/14 01:17:37;;;;;;;47.60;24.20;;;;;;;13.27;100.00;101515.75;4955355;28;20039;-82
2023/05/14 01:20:03;;;;;;;54.97;25.20;;;;;;;13.24;100.00;101508.59;4954454;28;20041;-82
2023/05/14 01:22:28;;;;;;;43.13;23.83;;;;;;;13.16;100.00;101491.84;4956585;29;20537;-83
2023/05/14 01:24:54;;;;;;;47.67;24.00;;;;;;;13.20;100.00;101509.00;4932972;29;20039;-83
2023/05/14 01:27:35;;;;;;;50.50;25.50;;;;;;;13.23;100.00;101519.72;4940071;29;20437;-83
2023/05/14 01:30:26;;;;;;;45.17;24.67;;;;;;;13.15;100.00;101509.34;4940066;29;20405;-83
2023/05/14 01:32:55;;;;;;;47.10;25.42;;;;;;;13.11;100.00;101512.47;4933997;29;20098;-83
2023/05/14 01:35:26;;;;;;;46.65;23.92;;;;;;;13.08;100.00;101508.06;4966410;28;20086;-83
2023/05/14 01:37:55;;;;;;;48.08;25.23;;;;;;;12.97;100.00;101508.94;4943262;28;20035;-83
2023/05/14 01:40:22;;;;;;;43.67;24.98;;;;;;;12.98;100.00;101513.41;4945349;29;20031;-82
2023/05/14 01:42:49;;;;;;;49.83;24.52;;;;;;;12.97;100.00;101510.78;4951204;29;20482;-82
2023/05/14 01:45:15;;;;;;;61.67;27.35;;;;;;;13.01;100.00;101504.94;4955423;29;20024;-83
2023/05/14 01:47:40;;;;;;;50.65;25.20;;;;;;;13.13;100.00;101514.06;4920054;29;20039;-83
2023/05/14 01:50:06;;;;;;;59.10;27.48;;;;;;;12.90;100.00;101507.66;4954703;29;20139;-82
2023/05/14 01:52:31;;;;;;;50.97;26.33;;;;;;;12.97;100.00;101517.19;4938759;28;20401;-83
2023/05/14 01:54:58;;;;;;;45.50;24.27;;;;;;;13.04;100.00;101512.06;4983399;28;20027;-83
2023/05/14 01:57:24;;;;;;;45.00;24.33;;;;;;;12.94;100.00;101497.31;4938848;29;20043;-83
2023/05/14 01:59:50;;;;;;;44.65;25.15;;;;;;;12.91;100.00;101505.78;4975965;28;20130;-82
2023/05/14 02:02:15;;;;;;;46.85;26.27;;;;;;;12.99;100.00;101506.06;4971852;28;20483;-82
2023/05/14 02:04:40;;;;;;;45.45;24.80;;;;;;;13.02;100.00;101498.44;4959079;28;20066;-83
2023/05/14 02:07:06;;;;;;;56.30;25.67;;;;;;;12.92;100.00;101496.53;4931052;29;20031;-83
2023/05/14 02:09:31;;;;;;;54.85;25.95;;;;;;;12.93;100.00;101503.78;4952184;29;20076;-83
2023/05/14 02:11:57;;;;;;;50.75;25.67;;;;;;;12.95;100.00;101502.66;4955963;29;20114;-83
2023/05/14 02:14:22;;;;;;;54.42;26.75;;;;;;;12.86;100.00;101503.41;4955475;29;20469;-83
2023/05/14 02:16:49;;;;;;;49.50;25.92;;;;;;;12.84;100.00;101502.66;4938955;28;20410;-83
2023/05/14 02:19:15;;;;;;;45.60;25.23;;;;;;;12.81;100.00;101492.75;4954814;28;20493;-82
2023/05/14 02:21:40;;;;;;;51.95;27.95;;;;;;;12.68;100.00;101470.88;4939302;28;20063;-82
2023/05/14 02:24:06;;;;;;;47.42;26.20;;;;;;;12.77;100.00;101490.38;4942473;28;20382;-81
2023/05/14 02:26:31;;;;;;;46.67;26.17;;;;;;;12.77;100.00;101495.88;4913668;29;20474;-82
2023/05/14 02:28:57;;;;;;;45.47;25.83;;;;;;;12.70;100.00;101498.22;4954717;29;20134;-81
2023/05/14 02:31:22;;;;;;;62.42;28.55;;;;;;;12.66;100.00;101500.34;4925572;29;20374;-82
2023/05/14 02:33:47;;;;;;;49.80;27.33;;;;;;;12.68;100.00;101501.09;4956890;29;20062;-82
2023/05/14 02:36:13;;;;;;;46.05;27.48;;;;;;;12.67;100.00;101513.09;4970506;28;20090;-82
2023/05/14 02:38:39;;;;;;;58.65;27.20;;;;;;;12.57;100.00;101495.53;4919965;29;20042;-83
2023/05/14 02:41:04;;;;;;;50.13;28.58;;;;;;;12.57;100.00;101494.69;4969166;28;20118;-83
2023/05/14 02:43:29;;;;;;;53.15;28.33;;;;;;;12.63;100.00;101484.09;4939242;29;20039;-82
2023/05/14 02:45:55;;;;;;;54.75;27.73;;;;;;;12.54;100.00;101479.28;4938073;29;20097;-82
2023/05/14 02:48:20;;;;;;;57.33;29.92;;;;;;;12.64;100.00;101488.59;4935608;29;20130;-82
2023/05/14 02:50:47;;;;;;;54.25;28.00;;;;;;;12.68;100.00;101492.84;4932316;29;20038;-82
2023/05/14 02:53:12;;;;;;;57.10;28.48;;;;;;;12.67;100.00;101480.13;4954454;29;20054;-84
2023/05/14 02:55:38;;;;;;;53.85;27.65;;;;;;;12.57;100.00;101468.06;4931575;29;20446;-84
2023/05/14 02:58:03;;;;;;;70.57;30.05;;;;;;;12.47;100.00;101462.41;4942394;29;20055;-84
2023/05/14 03:00:29;;;;;;;53.58;28.10;;;;;;;12.56;100.00;101479.19;4965111;28;20051;-84
2023/05/14 03:02:54;;;;;;;55.08;28.55;;;;;;;12.46;100.00;101487.25;4934008;29;20122;-84
2023/05/14 03:05:20;;;;;;;58.75;29.25;;;;;;;12.30;100.00;101466.47;4937776;29;20043;-83
2023/05/14 03:07:45;;;;;;;71.45;30.88;;;;;;;12.40;100.00;101485.88;4955659;29;20038;-83
2023/05/14 03:10:11;;;;;;;57.97;29.48;;;;;;;12.40;100.00;101479.50;4938124;29;20035;-82
2023/05/14 03:12:36;;;;;;;54.28;29.98;;;;;;;12.42;100.00;101477.53;4939448;28;20039;-81
2023/05/14 03:15:02;;;;;;;54.20;30.92;;;;;;;12.35;100.00;101477.13;4941805;28;20405;-81
2023/05/14 03:17:27;;;;;;;58.10;31.30;;;;;;;12.26;100.00;101461.34;4938025;29;20047;-80
2023/05/14 03:19:52;;;;;;;65.75;31.83;;;;;;;12.24;100.00;101474.31;4970085;28;20102;-81
2023/05/14 03:22:18;;;;;;;56.58;29.52;;;;;;;12.31;100.00;101465.50;4935106;29;20036;-82
2023/05/14 03:24:43;;;;;;;65.32;31.20;;;;;;;12.23;100.00;101470.69;4935675;28;20039;-82
2023/05/14 03:27:09;;;;;;;70.22;33.35;;;;;;;12.10;100.00;101467.09;4957282;28;20031;-81
2023/05/14 03:29:34;;;;;;;67.22;32.80;;;;;;;12.14;100.00;101463.16;4957263;29;20502;-81
2023/05/14 03:32:03;;;;;;;71.15;34.45;;;;;;;12.15;100.00;101481.38;4958855;28;20121;-81
2023/05/14 03:34:29;;;;;;;62.75;30.98;;;;;;;12.12;100.00;101465.16;4974971;28;20039;-82
2023/05/14 03:36:54;;;;;;;66.30;33.40;;;;;;;12.15;100.00;101475.91;4959296;29;20171;-81
2023/05/14 03:39:20;;;;;;;70.20;33.67;;;;;;;12.04;100.00;101451.13;4985979;28;20043;-81
2023/05/14 03:41:46;;;;;;;74.97;34.20;;;;;;;12.19;100.00;101465.56;4958275;29;20474;-82
2023/05/14 03:44:12;;;;;;;68.55;33.72;;;;;;;12.10;100.00;101465.25;4942136;29;20478;-83
2023/05/14 03:46:37;;;;;;;72.22;33.80;;;;;;;12.00;100.00;101466.94;4942044;29;20023;-83
2023/05/14 03:49:03;;;;;;;68.65;33.25;;;;;;;11.92;100.00;101475.75;4974818;28;20042;-82
2023/05/14 03:51:29;;;;;;;70.05;35.83;;;;;;;11.85;100.00;101473.53;4974902;28;20409;-83
2023/05/14 03:53:54;;;;;;;75.07;34.58;;;;;;;11.84;100.00;101469.94;4929425;29;20093;-82
2023/05/14 03:56:20;;;;;;;62.17;34.88;;;;;;;11.84;100.00;101464.44;4958357;29;20039;-84
2023/05/14 03:58:45;;;;;;;70.53;34.08;;;;;;;11.69;100.00;101438.13;4942569;29;20474;-82
2023/05/14 04:01:10;;;;;;;68.32;35.30;;;;;;;11.92;100.00;101462.03;4973663;28;21642;-82
2023/05/14 04:03:36;;;;;;;62.35;33.47;;;;;;;11.79;100.00;101469.41;4925504;29;20035;-82
2023/05/14 04:06:01;;;;;;;69.57;35.35;;;;;;;11.63;100.00;101447.72;4946681;28;20169;-82
2023/05/14 04:08:27;;;;;;;78.55;33.38;;;;;;;11.70;100.00;101459.97;4959500;28;20130;-80
2023/05/14 04:10:52;;;;;;;73.53;35.53;;;;;;;11.72;100.00;101466.25;4940990;29;20379;-81
2023/05/14 04:13:18;;;;;;;75.82;36.60;;;;;;;11.74;100.00;101468.84;4941422;29;20478;-81
2023/05/14 04:15:43;;;;;;;68.45;34.55;;;;;;;11.68;100.00;101453.72;4973463;28;20063;-83
2023/05/14 04:18:08;;;;;;;73.72;36.95;;;;;;;11.66;100.00;101463.06;4973741;28;20043;-83
2023/05/14 04:20:34;;;;;;;73.85;35.47;;;;;;;11.64;100.00;101471.44;4973443;28;20047;-81
2023/05/14 04:22:59;;;;;;;73.03;36.55;;;;;;;11.77;100.00;101482.34;4977667;28;20046;-82
2023/05/14 04:25:28;;;;;;;73.22;36.35;;;;;;;11.83;100.00;101476.41;4962276;28;20024;-81
2023/05/14 04:27:54;;;;;;;71.05;34.80;;;;;;;11.90;100.00;101464.00;4961029;28;20090;-81
2023/05/14 04:30:19;;;;;;;85.50;37.05;;;;;;;11.98;100.00;101471.66;4960467;28;20066;-81
2023/05/14 04:32:45;;;;;;;76.97;36.97;;;;;;;11.83;100.00;101459.06;4972944;28;20058;-80
2023/05/14 04:35:11;;;;;;;73.68;37.70;;;;;;;11.85;100.00;101466.19;4969407;28;20042;-81
2023/05/14 04:37:37;;;;;;;72.55;37.17;;;;;;;11.91;100.00;101474.00;4942041;29;20212;-82
2023/05/14 04:40:04;;;;;;;82.15;36.10;;;;;;;12.03;100.00;101468.56;4971305;28;20055;-83
2023/05/14 04:42:30;;;;;;;70.20;35.78;;;;;;;12.13;100.00;101473.28;4956832;28;20039;-82
2023/05/14 04:44:55;;;;;;;70.05;35.85;;;;;;;12.20;100.00;101473.69;4960356;28;20033;-81
2023/05/14 04:47:21;;;;;;;75.03;37.97;;;;;;;12.05;100.00;101474.81;4944942;29;20601;-81
2023/05/14 04:49:47;;;;;;;74.22;35.97;;;;;;;12.04;100.00;101468.47;4940695;29;20076;-81
2023/05/14 04:52:12;;;;;;;77.47;38.85;;;;;;;12.00;100.00;101452.34;4940158;29;20039;-81
2023/05/14 04:54:38;;;;;;;69.45;36.35;;;;;;;12.08;100.00;101461.72;4989544;28;20031;-81
2023/05/14 04:57:03;;;;;;;75.68;36.13;;;;;;;12.17;100.00;101462.03;4972332;28;20096;-82
2023/05/14 04:59:30;;;;;;;87.85;38.55;;;;;;;12.08;100.00;101453.50;4949269;29;20059;-81
2023/05/14 05:01:56;;;;;;;75.60;36.95;;;;;;;12.17;100.00;101454.69;4943048;28;20089;-82
2023/05/14 05:04:22;;;;;;;76.85;38.47;;;;;;;12.27;100.00;101463.09;4954910;29;20035;-81
2023/05/14 05:06:49;;;;;;;76.85;34.55;;;;;;;12.44;100.00;101483.75;4920833;29;20118;-81
2023/05/14 05:09:16;;;;;;;72.45;36.88;;;;;;;12.39;100.00;101477.75;4936291;29;20118;-82
2023/05/14 05:11:41;;;;;;;75.57;35.58;;;;;;;12.35;100.00;101471.63;4956377;28;20047;-84
2023/05/14 05:14:07;;;;;;;69.63;35.47;;;;;;;12.39;100.00;101486.00;4955789;28;20043;-84
2023/05/14 05:16:32;;;;;;;68.85;36.72;;;;;;;12.41;100.00;101484.88;4942223;28;20132;-86
2023/05/14 05:18:58;;;;;;;70.30;36.08;;;;;;;12.50;100.00;101486.91;4972633;28;20039;-82
2023/05/14 05:21:23;;;;;;;75.70;36.20;;;;;;;12.55;100.00;101459.09;4921565;29;20082;-82
2023/05/14 05:23:51;;;;;;;70.45;37.47;;;;;;;12.58;100.00;101464.34;4937553;29;20094;-82
2023/05/14 05:26:17;;;;;;;68.57;34.17;;;;;;;12.94;100.00;101494.56;4936779;29;20122;-82
2023/05/14 05:28:42;;;;;;;72.75;33.85;;;;;;;12.99;100.00;101465.69;4972005;28;20557;-82
2023/05/14 05:31:08;;;;;;;73.88;35.10;;;;;;;13.33;100.00;101484.13;4956466;29;20031;-82
2023/05/14 05:33:34;;;;;;;65.65;36.08;;;;;;;13.70;100.00;101482.00;4945052;29;20383;-82
2023/05/14 05:35:59;;;;;;;67.30;33.95;;;;;;;13.53;100.00;101458.66;4943733;29;20110;-83
2023/05/14 05:41:00;;;;;;;74.85;34.22;;;;;;;14.10;100.00;101494.34;4991879;23;20063;-83
2023/05/14 05:43:27;;;;;;;73.32;36.33;;;;;;;13.96;100.00;101484.47;4967475;28;20046;-84
2023/05/14 05:45:53;;;;;;;72.10;38.35;;;;;;;13.77;100.00;101491.53;4941941;28;20039;-83
2023/05/14 05:48:18;;;;;;;70.95;37.97;;;;;;;14.14;100.00;101491.19;4936175;28;20038;-84
2023/05/14 05:50:47;;;;;;;78.15;39.08;;;;;;;14.10;100.00;101491.56;4927041;28;20035;-83
2023/05/14 05:53:15;;;;;;;74.93;37.83;;;;;;;14.65;100.00;101486.03;4953543;28;20039;-84
2023/05/14 05:55:41;;;;;;;70.03;36.17;;;;;;;14.70;100.00;101489.28;4904397;28;20123;-84
2023/05/14 05:58:06;;;;;;;71.65;36.03;;;;;;;14.64;100.00;101485.19;4943089;28;20125;-84
2023/05/14 06:00:32;;;;;;;68.82;37.05;;;;;;;14.70;100.00;101489.28;4928564;28;20039;-83
2023/05/14 06:02:57;;;;;;;62.70;36.28;;;;;;;15.17;100.00;101495.28;4926638;28;20039;-84
2023/05/14 06:05:23;;;;;;;71.57;37.10;;;;;;;14.99;100.00;101497.75;4957074;28;20398;-83
2023/05/14 06:07:48;;;;;;;79.70;38.70;;;;;;;15.12;100.00;101492.03;4910027;28;20041;-83
2023/05/14 06:10:14;;;;;;;65.45;34.75;;;;;;;15.40;100.00;101500.63;4925605;28;20061;-83
2023/05/14 06:12:39;;;;;;;64.30;33.90;;;;;;;15.85;100.00;101493.88;4941076;28;20497;-82
2023/05/14 06:15:05;;;;;;;65.53;33.22;;;;;;;16.00;100.00;101489.69;4911432;28;20034;-83
2023/05/14 06:17:31;;;;;;;58.17;33.50;;;;;;;16.57;100.00;101495.44;4928157;28;20044;-82
2023/05/14 06:19:56;;;;;;;55.78;31.08;;;;;;;16.69;100.00;101505.38;4910996;28;20381;-83
2023/05/14 06:22:22;;;;;;;66.90;31.67;;;;;;;17.06;100.00;101498.22;4977678;28;20031;-82
2023/05/14 06:24:47;;;;;;;59.45;29.95;;;;;;;17.32;100.00;101501.22;4956943;28;20047;-82
2023/05/14 06:27:13;;;;;;;58.78;31.10;;;;;;;17.07;100.00;101500.84;4915309;28;20019;-84
2023/05/14 06:29:39;;;;;;;54.72;29.38;;;;;;;17.55;100.00;101504.50;4961174;28;20062;-84
2023/05/14 06:32:05;;;;;;;53.15;30.50;;;;;;;17.23;100.00;101504.88;4926661;28;20038;-84
2023/05/14 06:34:31;;;;;;;59.92;30.92;;;;;;;16.81;100.00;101505.22;4911044;28;20122;-81
2023/05/14 06:36:56;;;;;;;58.45;29.38;;;;;;;17.47;100.00;101495.22;4923884;28;20453;-81
2023/05/14 06:39:23;;;;;;;52.33;29.85;;;;;;;18.10;100.00;101502.81;4929935;28;20040;-80
2023/05/14 06:41:48;;;;;;;56.83;30.30;;;;;;;17.29;100.00;101500.66;4939529;29;20035;-85
2023/05/14 06:44:15;;;;;;;50.10;29.38;;;;;;;17.50;100.00;101503.22;4932000;28;20022;-85
2023/05/14 06:46:40;;;;;;;52.20;28.67;;;;;;;17.79;100.00;101508.63;4949256;29;20042;-88
2023/05/14 06:49:06;;;;;;;51.97;29.30;;;;;;;18.03;100.00;101508.09;4957250;28;20040;-85
2023/05/14 06:51:31;;;;;;;50.95;27.50;;;;;;;18.17;100.00;101488.19;4963338;28;20155;-88
2023/05/14 06:53:57;;;;;;;53.78;27.75;;;;;;;18.21;100.00;101493.44;4961051;28;20035;-84
2023/05/14 06:56:22;;;;;;;49.53;29.30;;;;;;;18.00;100.00;101489.00;4970973;28;20031;-84
2023/05/14 06:58:48;;;;;;;51.40;27.50;;;;;;;18.67;100.00;101497.88;4974766;28;20038;-88
2023/05/14 07:01:13;;;;;;;64.60;31.52;;;;;;;18.10;100.00;101497.28;4957146;29;20032;-86
2023/05/14 07:03:39;;;;;;;57.55;31.77;;;;;;;17.98;100.00;101491.06;4955444;28;20039;-88
2023/05/14 07:06:05;;;;;;;56.15;29.23;;;;;;;18.71;100.00;101493.78;4954406;28;20066;-88
2023/05/14 07:08:31;;;;;;;55.47;29.80;;;;;;;20.11;94.72;101505.81;4961991;29;20039;-86
2023/05/14 07:10:56;;;;;;;58.90;31.85;;;;;;;18.68;100.00;101499.63;4967565;28;20054;-86
2023/05/14 07:13:23;;;;;;;59.72;31.98;;;;;;;18.77;100.00;101492.25;4967466;28;20058;-86
2023/05/14 07:15:48;;;;;;;51.35;31.30;;;;;;;18.89;100.00;101493.78;4940567;29;20470;-90
2023/05/14 07:18:14;;;;;;;59.78;31.70;;;;;;;19.00;100.00;101492.66;4950030;29;20090;-88
2023/05/14 07:20:39;;;;;;;52.67;30.65;;;;;;;19.55;100.00;101493.38;4969939;28;20398;-83
2023/05/14 07:23:05;;;;;;;59.40;34.80;;;;;;;18.85;100.00;101495.13;4962798;28;20176;-88
2023/05/14 07:25:31;;;;;;;57.33;32.17;;;;;;;18.88;100.00;101494.81;4940521;29;20039;-87
2023/05/14 07:27:57;;;;;;;52.88;32.20;;;;;;;19.52;100.00;101483.47;4960902;28;20397;-87
2023/05/14 07:30:23;;;;;;;56.97;33.35;;;;;;;19.37;100.00;101482.34;4964228;28;20072;-87
2023/05/14 07:32:48;;;;;;;54.25;32.25;;;;;;;20.02;99.57;101496.59;4961950;28;20047;-86
2023/05/14 07:35:14;;;;;;;56.10;32.22;;;;;;;19.59;100.00;101475.34;4933354;29;20040;-85
2023/05/14 07:37:40;;;;;;;56.22;33.80;;;;;;;19.31;100.00;101480.22;4950177;29;20039;-86
2023/05/14 07:40:06;;;;;;;61.90;33.55;;;;;;;19.15;100.00;101479.06;4990712;28;20039;-86
2023/05/14 07:42:31;;;;;;;59.25;33.10;;;;;;;19.25;100.00;101490.94;4971743;28;20043;-86
2023/05/14 07:44:57;;;;;;;58.25;32.90;;;;;;;19.42;100.00;101496.59;4972502;28;20035;-87
2023/05/14 07:47:22;;;;;;;57.85;32.50;;;;;;;19.95;99.77;101492.72;4976982;28;20067;-83
2023/05/14 07:49:48;;;;;;;54.53;32.08;;;;;;;20.05;98.09;101491.72;4968888;29;20103;-82
2023/05/14 07:52:13;;;;;;;59.80;32.72;;;;;;;20.42;98.08;101488.53;4952417;28;20043;-83
2023/05/14 07:54:39;;;;;;;55.92;32.22;;;;;;;19.81;98.82;101485.91;4945414;28;21539;-84
2023/05/14 07:57:04;;;;;;;64.07;33.03;;;;;;;19.26;100.00;101472.38;4958399;28;20042;-83
2023/05/14 07:59:30;;;;;;;61.92;32.33;;;;;;;19.78;97.92;101486.22;4972212;28;20031;-83
2023/05/14 08:01:55;;;;;;;57.10;31.85;;;;;;;20.20;97.58;101495.59;4929285;29;20039;-84
2023/05/14 08:04:22;;;;;;;58.67;33.45;;;;;;;20.12;96.76;101490.91;4973732;28;20098;-84
2023/05/14 08:06:48;;;;;;;47.22;31.88;;;;;;;20.35;95.48;101487.50;4943484;29;20039;-84
2023/05/14 08:09:14;;;;;;;58.72;33.97;;;;;;;19.79;98.14;101488.00;4939838;29;20050;-83
2023/05/14 08:11:39;;;;;;;56.70;32.17;;;;;;;19.23;100.00;101484.69;4951130;29;20102;-84
2023/05/14 08:14:05;;;;;;;61.45;30.92;;;;;;;18.93;100.00;101483.22;4934397;28;20047;-83
2023/05/14 08:16:30;;;;;;;53.50;29.90;;;;;;;18.72;100.00;101484.41;4933555;28;20052;-86
2023/05/14 08:18:56;;;;;;;53.95;31.60;;;;;;;18.85;100.00;101486.81;4978360;28;20035;-85
2023/05/14 08:21:21;;;;;;;54.65;30.45;;;;;;;20.02;98.27;101488.25;4950384;29;20042;-85
2023/05/14 08:23:47;;;;;;;55.85;31.42;;;;;;;20.39;95.71;101500.00;4925205;29;20041;-84
2023/05/14 08:26:12;;;;;;;45.92;29.02;;;;;;;20.90;92.16;101491.56;4954383;28;20067;-85
2023/05/14 08:28:37;;;;;;;56.58;30.20;;;;;;;20.90;91.56;101492.44;4950918;29;20543;-87
2023/05/14 08:31:03;;;;;;;54.35;29.65;;;;;;;20.75;93.22;101499.75;4966772;28;20038;-82
2023/05/14 08:33:28;;;;;;;51.72;29.20;;;;;;;21.29;91.99;101488.91;4963602;29;20050;-84
2023/05/14 08:35:55;;;;;;;54.38;30.02;;;;;;;20.83;92.22;101499.75;4958444;28;20496;-87
2023/05/14 08:38:20;;;;;;;56.67;29.42;;;;;;;20.87;91.78;101494.69;4956530;28;20074;-86
2023/05/14 08:40:48;;;;;;;60.75;28.65;;;;;;;21.55;87.76;101489.78;4949910;28;20051;-89
2023/05/14 08:43:18;;;;;;;55.38;26.23;;;;;;;21.65;89.00;101490.44;4950560;29;20038;-87
2023/05/14 08:45:45;;;;;;;60.13;28.25;;;;;;;20.96;91.33;101490.88;4970680;28;20015;-88
2023/05/14 08:48:14;;;;;;;51.30;27.25;;;;;;;21.20;91.28;101464.94;4931356;28;20019;-87
2023/05/14 08:50:39;;;;;;;48.53;26.73;;;;;;;21.51;91.30;101478.09;4961442;28;20047;-87
2023/05/14 08:53:05;;;;;;;60.40;28.05;;;;;;;21.57;90.08;101473.75;4968770;28;20110;-88
2023/05/14 08:55:32;;;;;;;53.20;28.35;;;;;;;21.59;89.64;101453.00;4974516;28;20043;-87
2023/05/14 08:57:58;;;;;;;55.10;25.95;;;;;;;21.98;84.92;101470.81;4942550;29;20103;-87
2023/05/14 09:00:25;;;;;;;49.08;26.65;;;;;;;21.84;84.93;101478.88;4960100;29;20058;-87
2023/05/14 09:02:51;;;;;;;48.47;28.10;;;;;;;21.84;86.09;101484.47;4959769;28;20510;-87
2023/05/14 09:05:18;;;;;;;50.47;28.55;;;;;;;22.15;85.62;101472.47;4961137;28;20062;-84
2023/05/14 09:07:44;;;;;;;49.15;28.25;;;;;;;21.66;86.68;101467.97;4957732;29;20035;-87
2023/05/14 09:10:14;;;;;;;51.50;27.55;;;;;;;21.77;86.78;101472.28;4943584;29;20039;-87
2023/05/14 09:12:40;;;;;;;53.33;28.80;;;;;;;21.92;86.15;101460.38;4939588;28;20493;-86
2023/05/14 09:15:06;;;;;;;52.08;26.10;;;;;;;22.10;85.89;101462.88;4926792;29;20035;-86
2023/05/14 09:17:32;;;;;;;56.50;27.65;;;;;;;21.85;84.65;101463.88;4973313;28;20039;-84
2023/05/14 09:19:57;;;;;;;51.72;28.60;;;;;;;21.74;87.02;101461.50;4958329;28;20067;-85
2023/05/14 09:22:23;;;;;;;49.88;27.27;;;;;;;22.06;84.54;101465.19;4942043;28;20035;-84
2023/05/14 09:25:03;;;;;;;52.33;26.80;;;;;;;21.66;86.17;101459.59;4962109;28;20401;-86
2023/05/14 09:27:30;;;;;;;58.05;25.75;;;;;;;22.51;82.55;101459.88;4949119;28;20122;-83
2023/05/14 09:30:03;;;;;;;40.88;26.13;;;;;;;22.63;81.79;101461.19;4920960;29;20122;-83
2023/05/14 09:32:35;;;;;;;43.53;25.05;;;;;;;22.95;77.84;101460.03;4948287;28;20035;-83
2023/05/14 09:35:20;;;;;;;40.15;24.45;;;;;;;23.69;73.09;101461.19;4968607;28;20035;-83
2023/05/14 09:37:48;;;;;;;52.60;25.90;;;;;;;22.55;79.89;101453.75;4971937;28;20027;-83
2023/05/14 09:40:14;;;;;;;52.10;26.42;;;;;;;22.49;80.71;101451.69;4939685;28;20051;-83
2023/05/14 09:42:40;;;;;;;50.05;26.15;;;;;;;22.34;82.13;101448.81;4955332;29;20381;-82
2023/05/14 09:45:07;;;;;;;48.72;25.42;;;;;;;22.80;79.73;101452.69;4949835;29;20045;-83
2023/05/14 09:47:33;;;;;;;47.25;26.05;;;;;;;22.25;80.08;101446.22;4968475;28;20067;-82
2023/05/14 09:49:58;;;;;;;58.45;25.88;;;;;;;22.62;77.52;101453.00;4936737;29;20082;-83
2023/05/14 09:52:25;;;;;;;48.78;25.77;;;;;;;22.56;79.82;101438.75;4935373;29;20051;-84
2023/05/14 09:54:52;;;;;;;44.65;23.85;;;;;;;23.55;77.22;101448.13;4966994;28;20493;-82
2023/05/14 09:57:18;;;;;;;44.65;23.08;;;;;;;23.43;77.62;101440.22;4953547;28;20047;-82
2023/05/14 09:59:43;;;;;;;50.13;26.00;;;;;;;23.17;78.82;101450.97;4953522;28;20056;-82
2023/05/14 10:02:24;;;;;;;55.33;28.23;;;;;;;22.47;82.09;101448.22;4967762;28;20513;-83
2023/05/14 10:04:53;;;;;;;56.70;26.83;;;;;;;22.27;84.04;101436.66;4959362;28;20042;-84
2023/05/14 10:07:28;;;;;;;48.90;25.83;;;;;;;22.91;81.47;101444.72;4948059;28;20081;-84
2023/05/14 10:09:58;;;;;;;44.47;24.27;;;;;;;22.97;79.60;101440.28;4967457;28;20042;-83
2023/05/14 10:12:27;;;;;;;56.53;26.40;;;;;;;22.69;78.94;101428.84;4950171;28;20043;-82
2023/05/14 10:14:59;;;;;;;45.75;26.42;;;;;;;22.34;81.24;101434.00;4976750;28;20032;-84
2023/05/14 10:17:31;;;;;;;48.30;26.17;;;;;;;22.81;79.91;101432.94;4944756;28;20125;-81
2023/05/14 10:19:58;;;;;;;51.70;25.02;;;;;;;22.85;81.83;101430.63;4956812;28;20027;-83
2023/05/14 10:22:33;;;;;;;45.17;23.77;;;;;;;22.97;77.72;101433.84;4941666;29;20470;-82
2023/05/14 10:25:00;;;;;;;43.70;24.00;;;;;;;22.79;76.96;101432.25;4955868;28;20054;-84
2023/05/14 10:27:26;;;;;;;46.85;22.88;;;;;;;23.35;77.61;101429.13;4949172;28;20498;-81
2023/05/14 10:29:53;;;;;;;44.38;24.95;;;;;;;23.34;76.36;101424.59;4935628;29;20038;-82
2023/05/14 10:32:24;;;;;;;48.13;24.98;;;;;;;22.95;79.44;101422.84;4933926;28;20478;-82
2023/05/14 10:34:50;;;;;;;42.67;24.20;;;;;;;23.01;77.33;101418.44;4950176;28;20066;-82
2023/05/14 10:37:19;;;;;;;51.60;25.05;;;;;;;22.92;78.74;101418.53;4951089;28;20039;-82
2023/05/14 10:39:53;;;;;;;47.72;24.33;;;;;;;23.35;77.54;101417.94;4945583;28;20051;-82
2023/05/14 10:42:21;;;;;;;43.05;24.85;;;;;;;22.47;77.17;101405.50;4961879;28;20078;-81
2023/05/14 10:44:57;;;;;;;46.22;22.67;;;;;;;22.72;76.09;101420.09;4955238;28;20031;-82
2023/05/14 10:47:24;;;;;;;35.63;22.27;;;;;;;22.63;76.94;101410.94;4964874;28;20032;-83
2023/05/14 10:49:53;;;;;;;40.20;23.20;;;;;;;22.58;76.65;101397.53;4938163;29;20032;-82
2023/05/14 10:52:20;;;;;;;46.35;21.80;;;;;;;22.82;77.58;101401.16;4964701;28;20032;-82
2023/05/14 10:54:59;;;;;;;42.33;22.40;;;;;;;23.57;69.92;101404.91;4944157;28;20114;-82
2023/05/14 10:57:27;;;;;;;33.70;19.48;;;;;;;23.20;69.88;101401.19;4968886;28;20043;-81
2023/05/14 10:59:54;;;;;;;36.25;19.38;;;;;;;23.46;65.79;101406.28;4932494;28;20027;-80
2023/05/14 11:02:26;;;;;;;31.85;18.13;;;;;;;23.40;65.86;101397.78;4970927;28;20031;-80
2023/05/14 11:05:03;;;;;;;39.20;17.42;;;;;;;23.38;64.45;101392.41;4919566;28;20118;-81